createdAt,value
2023-03-30T00:01:17.532Z,98336.81
2023-03-30T00:04:23.296Z,98329.53
2023-03-30T00:07:26.076Z,98325.56
2023-03-30T00:10:29.925Z,98327.41
2023-03-30T00:13:34.706Z,98330.44
2023-03-30T00:16:37.875Z,98322.22
2023-03-30T00:19:40.800Z,98317.00
2023-03-30T00:22:45.173Z,98319.94
2023-03-30T00:25:47.832Z,98313.91
2023-03-30T00:28:50.581Z,98317.66
2023-03-30T00:31:53.660Z,98314.34
2023-03-30T00:34:56.417Z,98305.38
2023-03-30T00:38:01.834Z,98304.34
2023-03-30T00:41:04.807Z,98305.94
2023-03-30T00:44:10.130Z,98301.94
2023-03-30T00:47:13.130Z,98303.00
2023-03-30T00:50:18.147Z,98299.69
2023-03-30T00:53:28.338Z,98295.84
2023-03-30T00:56:31.661Z,98288.13
2023-03-30T00:59:35.108Z,98283.16
2023-03-30T01:02:46.683Z,98278.28
2023-03-30T01:05:50.852Z,98283.16
2023-03-30T01:08:53.700Z,98282.69
2023-03-30T01:11:56.794Z,98284.00
2023-03-30T01:15:00.478Z,98278.19
2023-03-30T01:18:11.728Z,98273.41
2023-03-30T01:21:17.405Z,98271.25
2023-03-30T01:24:49.592Z,98270.41
2023-03-30T01:27:52.188Z,98264.16
2023-03-30T01:31:26.068Z,98258.97
2023-03-30T01:34:38.156Z,98257.84
2023-03-30T01:37:56.554Z,98265.28
2023-03-30T01:41:00.456Z,98257.41
2023-03-30T01:44:09.029Z,98255.72
2023-03-30T01:47:30.294Z,98258.66
2023-03-30T01:50:38.555Z,98252.72
2023-03-30T01:54:00.869Z,98259.25
2023-03-30T01:57:12.016Z,98266.22
2023-03-30T02:00:18.102Z,98269.84
2023-03-30T02:03:32.140Z,98255.72
2023-03-30T02:06:41.190Z,98258.81
2023-03-30T02:09:44.694Z,98258.00
2023-03-30T02:12:47.961Z,98255.28
2023-03-30T02:15:58.342Z,98255.66
2023-03-30T02:19:01.649Z,98262.59
2023-03-30T02:22:06.561Z,98273.69
2023-03-30T02:25:09.648Z,98258.00
2023-03-30T02:28:12.487Z,98257.81
2023-03-30T02:31:16.433Z,98266.53
2023-03-30T02:35:01.793Z,98259.78
2023-03-30T02:38:07.933Z,98255.44
2023-03-30T02:41:31.959Z,98259.06
2023-03-30T02:44:37.486Z,98257.69
2023-03-30T02:47:43.290Z,98249.06
2023-03-30T02:50:51.209Z,98252.00
2023-03-30T02:54:30.507Z,98256.84
2023-03-30T02:57:56.675Z,98250.56
2023-03-30T03:01:36.760Z,98247.53
2023-03-30T03:04:53.281Z,98249.41
2023-03-30T03:08:15.003Z,98245.47
2023-03-30T03:11:18.870Z,98244.69
2023-03-30T03:14:21.564Z,98250.22
2023-03-30T03:17:24.934Z,98239.09
2023-03-30T03:20:30.788Z,98251.38
2023-03-30T03:23:36.569Z,98243.38
2023-03-30T03:26:40.924Z,98245.53
2023-03-30T03:29:43.724Z,98238.63
2023-03-30T03:32:46.908Z,98240.81
2023-03-30T03:35:54.598Z,98234.34
2023-03-30T03:38:59.311Z,98238.28
2023-03-30T03:42:05.008Z,98234.94
2023-03-30T03:45:09.116Z,98228.84
2023-03-30T03:48:15.984Z,98224.69
2023-03-30T03:51:24.561Z,98230.81
2023-03-30T03:54:27.215Z,98230.59
2023-03-30T03:57:30.017Z,98226.03
2023-03-30T04:00:34.205Z,98229.31
2023-03-30T04:03:37.308Z,98217.06
2023-03-30T04:06:40.287Z,98230.25
2023-03-30T04:09:44.268Z,98224.13
2023-03-30T04:13:14.243Z,98220.22
2023-03-30T04:16:22.574Z,98225.53
2023-03-30T04:19:47.703Z,98225.09
2023-03-30T04:23:02.201Z,98226.53
2023-03-30T04:26:23.702Z,98218.22
2023-03-30T04:29:33.030Z,98214.69
2023-03-30T04:33:04.028Z,98212.47
2023-03-30T04:36:22.557Z,98203.78
2023-03-30T04:39:51.572Z,98203.03
2023-03-30T04:43:14.795Z,98197.53
2023-03-30T04:46:30.114Z,98193.94
2023-03-30T04:49:42.116Z,98195.72
2023-03-30T04:53:17.282Z,98202.72
2023-03-30T04:56:35.244Z,98190.88
2023-03-30T04:59:54.585Z,98190.91
2023-03-30T05:03:18.489Z,98198.78
2023-03-30T05:06:42.434Z,98195.50
2023-03-30T05:09:47.788Z,98186.53
2023-03-30T05:13:08.861Z,98186.44
2023-03-30T05:16:34.925Z,98173.13
2023-03-30T05:20:10.702Z,98184.75
2023-03-30T05:23:32.061Z,98180.31
2023-03-30T05:26:54.455Z,98186.41
2023-03-30T05:30:15.882Z,98191.59
2023-03-30T05:33:37.341Z,98188.38
2023-03-30T05:36:55.188Z,98188.56
2023-03-30T05:40:23.894Z,98191.25
2023-03-30T05:43:41.741Z,98183.34
2023-03-30T05:47:04.956Z,98179.56
2023-03-30T05:50:18.796Z,98174.75
2023-03-30T05:53:34.881Z,98170.06
2023-03-30T05:56:55.731Z,98156.09
2023-03-30T06:00:14.339Z,98145.75
2023-03-30T06:03:28.365Z,98141.88
2023-03-30T06:06:31.501Z,98151.84
2023-03-30T06:09:35.140Z,98145.69
2023-03-30T06:12:44.683Z,98146.34
2023-03-30T06:16:03.648Z,98141.88
2023-03-30T06:19:07.752Z,98149.47
2023-03-30T06:22:10.989Z,98146.09
2023-03-30T06:25:30.609Z,98137.22
2023-03-30T06:28:34.331Z,98139.50
2023-03-30T06:31:37.130Z,98136.69
2023-03-30T06:35:16.787Z,98132.78
2023-03-30T06:38:22.149Z,98135.47
2023-03-30T06:41:26.993Z,98142.25
2023-03-30T06:44:29.874Z,98134.19
2023-03-30T06:47:33.554Z,98121.88
2023-03-30T06:50:37.051Z,98121.66
2023-03-30T06:53:49.291Z,98121.38
2023-03-30T06:56:53.064Z,98130.63
2023-03-30T06:59:55.899Z,98126.94
2023-03-30T07:02:58.552Z,98132.97
2023-03-30T07:06:10.952Z,98141.50
2023-03-30T07:09:15.248Z,98140.75
2023-03-30T07:12:18.769Z,98140.22
2023-03-30T07:15:23.210Z,98145.63
2023-03-30T07:18:26.335Z,98143.16
2023-03-30T07:21:29.207Z,98140.53
2023-03-30T07:24:34.215Z,98136.22
2023-03-30T07:27:38.445Z,98137.09
2023-03-30T07:30:41.232Z,98128.31
2023-03-30T07:33:46.082Z,98129.69
2023-03-30T07:36:54.722Z,98115.47
2023-03-30T07:40:01.166Z,98115.19
2023-03-30T07:43:04.801Z,98116.78
2023-03-30T07:46:14.608Z,98128.34
2023-03-30T07:49:22.058Z,98125.38
2023-03-30T07:52:26.350Z,98132.19
2023-03-30T07:55:38.575Z,98135.84
2023-03-30T07:58:48.455Z,98130.06
2023-03-30T08:01:54.853Z,98125.03
2023-03-30T08:05:36.033Z,98135.22
2023-03-30T08:08:50.830Z,98142.09
2023-03-30T08:11:54.170Z,98141.38
2023-03-30T08:14:57.233Z,98154.81
2023-03-30T08:18:04.592Z,98146.47
2023-03-30T08:21:07.644Z,98141.56
2023-03-30T08:24:10.617Z,98137.09
2023-03-30T08:27:13.876Z,98139.47
2023-03-30T08:30:16.927Z,98137.91
2023-03-30T08:33:19.613Z,98150.47
2023-03-30T08:36:22.887Z,98142.97
2023-03-30T08:39:26.151Z,98132.69
2023-03-30T08:42:32.154Z,98139.81
2023-03-30T08:45:42.495Z,98128.13
2023-03-30T08:48:46.247Z,98122.38
2023-03-30T08:51:52.093Z,98121.28
2023-03-30T08:54:56.030Z,98126.22
2023-03-30T08:58:03.923Z,98105.56
2023-03-30T09:01:25.801Z,98102.94
2023-03-30T09:04:38.929Z,98107.03
2023-03-30T09:08:10.469Z,98086.22
2023-03-30T09:11:16.553Z,98083.34
2023-03-30T09:14:29.564Z,98086.34
2023-03-30T09:17:42.539Z,98082.28
2023-03-30T09:20:46.496Z,98071.38
2023-03-30T09:23:49.467Z,98081.69
2023-03-30T09:27:08.661Z,98072.56
2023-03-30T09:30:19.314Z,98073.38
2023-03-30T09:33:28.435Z,98055.06
2023-03-30T09:36:40.399Z,98064.16
2023-03-30T09:39:43.577Z,98079.19
2023-03-30T09:42:52.781Z,98082.78
2023-03-30T09:45:57.316Z,98059.91
2023-03-30T09:49:14.871Z,98052.28
2023-03-30T09:52:23.477Z,98041.13
2023-03-30T09:55:36.877Z,98034.94
2023-03-30T09:58:44.633Z,98029.13
2023-03-30T10:01:47.590Z,98029.94
2023-03-30T10:04:53.260Z,98027.63
2023-03-30T10:08:00.866Z,98019.88
2023-03-30T10:11:06.977Z,98022.03
2023-03-30T10:14:22.221Z,98016.25
2023-03-30T10:17:27.008Z,98019.56
2023-03-30T10:20:36.724Z,98022.56
2023-03-30T10:23:42.207Z,97999.06
2023-03-30T10:26:51.446Z,98003.50
2023-03-30T10:29:54.149Z,98000.41
2023-03-30T10:33:00.232Z,97995.31
2023-03-30T10:36:03.689Z,97993.81
2023-03-30T10:39:23.559Z,97989.97
2023-03-30T10:42:27.811Z,97985.47
2023-03-30T10:45:38.620Z,97980.63
2023-03-30T10:49:02.781Z,97983.78
2023-03-30T10:52:56.372Z,97960.31
2023-03-30T10:56:14.288Z,97956.03
2023-03-30T10:59:28.751Z,97962.66
2023-03-30T11:03:06.101Z,97967.41
2023-03-30T11:06:17.849Z,97961.09
2023-03-30T11:09:24.953Z,97940.06
2023-03-30T11:12:29.346Z,97938.00
2023-03-30T11:15:42.577Z,97949.16
2023-03-30T11:18:56.044Z,97943.53
2023-03-30T11:22:05.766Z,97947.81
2023-03-30T11:25:20.256Z,97952.38
2023-03-30T11:28:47.838Z,97947.41
2023-03-30T11:31:58.104Z,97940.50
2023-03-30T11:35:40.259Z,97932.78
2023-03-30T11:38:54.686Z,97921.03
2023-03-30T11:42:22.910Z,97912.88
2023-03-30T11:45:52.131Z,97927.88
2023-03-30T11:49:09.962Z,97911.41
2023-03-30T11:52:28.679Z,97906.19
2023-03-30T11:55:51.960Z,97905.34
2023-03-30T11:59:20.884Z,97899.09
2023-03-30T12:02:29.715Z,97895.03
2023-03-30T12:05:36.795Z,97898.56
2023-03-30T12:09:21.028Z,97891.38
2023-03-30T12:12:33.086Z,97888.41
2023-03-30T12:15:49.565Z,97889.91
2023-03-30T12:18:55.452Z,97884.31
2023-03-30T12:22:26.175Z,97881.19
2023-03-30T12:25:31.302Z,97867.34
2023-03-30T12:29:52.688Z,97857.16
2023-03-30T12:32:36.298Z,97854.94
2023-03-30T12:35:54.410Z,97852.81
2023-03-30T12:38:58.630Z,97841.84
2023-03-30T12:42:09.013Z,97844.31
2023-03-30T12:45:33.607Z,97835.44
2023-03-30T12:48:53.518Z,97828.72
2023-03-30T12:52:43.879Z,97831.31
2023-03-30T12:56:09.212Z,97836.91
2023-03-30T12:59:49.919Z,97830.31
2023-03-30T13:03:30.457Z,97822.09
2023-03-30T13:06:36.541Z,97819.75
2023-03-30T13:09:58.204Z,97824.31
2023-03-30T13:13:03.378Z,97826.13
2023-03-30T13:16:09.103Z,97835.94
2023-03-30T13:19:33.062Z,97844.50
2023-03-30T13:22:36.136Z,97848.56
2023-03-30T13:25:51.555Z,97837.72
2023-03-30T13:28:55.206Z,97826.41
2023-03-30T13:32:07.030Z,97830.28
2023-03-30T13:35:18.713Z,97833.59
2023-03-30T13:38:27.663Z,97836.22
2023-03-30T13:42:04.842Z,97834.38
2023-03-30T13:45:26.318Z,97826.00
2023-03-30T13:48:56.595Z,97824.81
2023-03-30T13:52:15.362Z,97829.34
2023-03-30T13:55:31.267Z,97832.28
2023-03-30T13:58:36.474Z,97839.31
2023-03-30T14:01:40.733Z,97828.66
2023-03-30T14:04:45.187Z,97811.72
2023-03-30T14:07:49.589Z,97807.44
2023-03-30T14:10:52.869Z,97818.91
2023-03-30T14:13:56.094Z,97809.69
2023-03-30T14:17:01.481Z,97814.22
2023-03-30T14:20:19.699Z,97809.00
2023-03-30T14:23:25.482Z,97793.63
2023-03-30T14:26:29.756Z,97796.94
2023-03-30T14:29:32.770Z,97791.38
2023-03-30T14:32:35.596Z,97789.94
2023-03-30T14:35:56.987Z,97784.38
2023-03-30T14:38:59.841Z,97804.50
2023-03-30T14:42:11.175Z,97807.72
2023-03-30T14:45:20.065Z,97811.78
2023-03-30T14:48:32.001Z,97820.97
2023-03-30T14:51:39.801Z,97816.66
2023-03-30T14:54:51.376Z,97817.13
2023-03-30T14:58:01.298Z,97805.31
2023-03-30T15:01:09.425Z,97808.94
2023-03-30T15:04:16.755Z,97809.16
2023-03-30T15:07:23.736Z,97802.72
2023-03-30T15:10:40.958Z,97797.53
2023-03-30T15:13:53.175Z,97797.03
2023-03-30T15:16:56.892Z,97789.38
2023-03-30T15:20:06.697Z,97768.38
2023-03-30T15:23:13.149Z,97758.81
2023-03-30T15:26:17.038Z,97738.88
2023-03-30T15:29:20.550Z,97735.53
2023-03-30T15:32:40.207Z,97728.06
2023-03-30T15:35:43.244Z,97718.00
2023-03-30T15:38:54.966Z,97725.13
2023-03-30T15:41:58.496Z,97723.81
2023-03-30T15:45:10.945Z,97732.03
2023-03-30T15:48:14.116Z,97719.81
2023-03-30T15:51:30.218Z,97715.25
2023-03-30T15:54:45.498Z,97702.31
2023-03-30T15:57:50.013Z,97707.69
2023-03-30T16:00:53.885Z,97708.69
2023-03-30T16:03:57.512Z,97711.31
2023-03-30T16:07:00.436Z,97714.66
2023-03-30T16:10:03.709Z,97722.22
2023-03-30T16:13:11.736Z,97724.53
2023-03-30T16:16:15.524Z,97712.00
2023-03-30T16:19:20.017Z,97715.63
2023-03-30T16:22:23.032Z,97714.88
2023-03-30T16:25:41.713Z,97720.41
2023-03-30T16:28:50.136Z,97725.88
2023-03-30T16:31:53.860Z,97728.97
2023-03-30T16:34:59.406Z,97730.03
2023-03-30T16:38:02.385Z,97735.31
2023-03-30T16:41:06.881Z,97739.63
2023-03-30T16:44:09.810Z,97740.31
2023-03-30T16:47:12.850Z,97752.16
2023-03-30T16:50:23.637Z,97743.56
2023-03-30T16:53:26.501Z,97736.88
2023-03-30T16:56:29.689Z,97720.88
2023-03-30T16:59:33.983Z,97708.88
2023-03-30T17:02:40.407Z,97700.81
2023-03-30T17:05:48.962Z,97689.00
2023-03-30T17:08:52.314Z,97700.00
2023-03-30T17:11:55.177Z,97710.78
2023-03-30T17:14:58.127Z,97714.84
2023-03-30T17:18:01.793Z,97733.97
2023-03-30T17:21:05.456Z,97734.88
2023-03-30T17:24:10.640Z,97725.53
2023-03-30T17:27:14.123Z,97706.84
2023-03-30T17:30:29.154Z,97698.25
2023-03-30T17:33:33.025Z,97706.47
2023-03-30T17:36:35.846Z,97711.75
2023-03-30T17:39:38.641Z,97717.75
2023-03-30T17:42:41.726Z,97706.78
2023-03-30T17:45:46.835Z,97707.81
2023-03-30T17:48:52.078Z,97716.97
2023-03-30T17:51:55.034Z,97717.38
2023-03-30T17:54:57.883Z,97711.56
2023-03-30T17:58:01.374Z,97720.13
2023-03-30T18:01:07.196Z,97719.00
2023-03-30T18:04:13.848Z,97711.69
2023-03-30T18:07:16.898Z,97709.75
2023-03-30T18:10:21.052Z,97698.56
2023-03-30T18:13:25.768Z,97710.25
2023-03-30T18:16:28.845Z,97709.84
2023-03-30T18:19:31.695Z,97712.72
2023-03-30T18:22:34.524Z,97717.13
2023-03-30T18:25:37.606Z,97715.66
2023-03-30T18:28:46.815Z,97717.94
2023-03-30T18:31:51.196Z,97715.34
2023-03-30T18:34:54.969Z,97709.00
2023-03-30T18:37:58.808Z,97703.03
2023-03-30T18:41:01.899Z,97697.09
2023-03-30T18:44:04.820Z,97688.03
2023-03-30T18:47:09.547Z,97691.59
2023-03-30T18:50:28.948Z,97699.44
2023-03-30T18:53:32.143Z,97687.41
2023-03-30T18:56:35.203Z,97682.66
2023-03-30T18:59:41.012Z,97701.81
2023-03-30T19:02:44.206Z,97685.97
2023-03-30T19:05:48.023Z,97683.13
2023-03-30T19:08:51.571Z,97671.09
2023-03-30T19:11:54.583Z,97682.25
2023-03-30T19:14:57.586Z,97682.66
2023-03-30T19:18:01.814Z,97680.72
2023-03-30T19:21:05.126Z,97677.72
2023-03-30T19:24:08.604Z,97676.38
2023-03-30T19:27:11.600Z,97677.88
2023-03-30T19:30:18.809Z,97662.03
2023-03-30T19:33:21.973Z,97652.59
2023-03-30T19:36:25.537Z,97656.06
2023-03-30T19:39:28.510Z,97657.94
2023-03-30T19:42:32.854Z,97661.31
2023-03-30T19:45:36.020Z,97660.78
2023-03-30T19:48:38.911Z,97645.22
2023-03-30T19:51:41.926Z,97645.44
2023-03-30T19:54:44.762Z,97654.69
2023-03-30T19:57:47.630Z,97650.16
2023-03-30T20:00:51.059Z,97626.94
2023-03-30T20:03:54.133Z,97631.88
2023-03-30T20:06:58.261Z,97630.31
2023-03-30T20:10:01.243Z,97636.97
2023-03-30T20:13:04.154Z,97632.56
2023-03-30T20:16:07.082Z,97638.75
2023-03-30T20:19:22.440Z,97639.06
2023-03-30T20:22:29.792Z,97637.66
2023-03-30T20:25:32.629Z,97639.38
2023-03-30T20:28:35.302Z,97647.97
2023-03-30T20:31:38.282Z,97641.38
2023-03-30T20:34:42.719Z,97653.81
2023-03-30T20:37:45.613Z,97663.28
2023-03-30T20:40:56.428Z,97653.81
2023-03-30T20:44:03.630Z,97632.28
2023-03-30T20:47:08.982Z,97647.69
2023-03-30T20:50:12.666Z,97651.25
2023-03-30T20:53:15.563Z,97642.75
2023-03-30T20:56:18.375Z,97647.13
2023-03-30T20:59:21.595Z,97639.34
2023-03-30T21:02:25.885Z,97641.81
2023-03-30T21:05:29.037Z,97638.00
2023-03-30T21:08:32.516Z,97638.09
2023-03-30T21:11:39.285Z,97635.63
2023-03-30T21:14:42.106Z,97642.56
2023-03-30T21:17:44.878Z,97636.06
2023-03-30T21:20:47.826Z,97639.22
2023-03-30T21:23:50.962Z,97635.38
2023-03-30T21:26:54.852Z,97646.09
2023-03-30T21:29:57.674Z,97636.72
2023-03-30T21:33:00.596Z,97640.31
2023-03-30T21:36:04.656Z,97633.81
2023-03-30T21:39:07.667Z,97632.63
2023-03-30T21:42:11.085Z,97623.56
2023-03-30T21:45:14.244Z,97617.59
2023-03-30T21:48:19.296Z,97612.41
2023-03-30T21:51:23.194Z,97614.09
2023-03-30T21:54:26.194Z,97617.28
2023-03-30T21:57:30.549Z,97607.34
2023-03-30T22:00:33.395Z,97607.00
2023-03-30T22:03:36.461Z,97591.72
2023-03-30T22:06:39.260Z,97588.88
2023-03-30T22:09:42.445Z,97598.47
2023-03-30T22:12:45.252Z,97591.13
2023-03-30T22:16:16.632Z,97591.06
2023-03-30T22:19:23.067Z,97595.19
2023-03-30T22:22:25.880Z,97593.81
2023-03-30T22:25:29.366Z,97594.63
2023-03-30T22:28:32.178Z,97582.34
2023-03-30T22:31:34.967Z,97583.63
2023-03-30T22:34:38.043Z,97579.78
2023-03-30T22:37:40.820Z,97570.66
2023-03-30T22:40:45.284Z,97575.66
2023-03-30T22:43:47.977Z,97566.09
2023-03-30T22:46:50.813Z,97560.13
2023-03-30T22:49:53.690Z,97557.38
2023-03-30T22:52:57.000Z,97552.72
2023-03-30T22:56:00.002Z,97549.81
2023-03-30T22:59:02.805Z,97561.44
2023-03-30T23:02:05.473Z,97555.69
2023-03-30T23:05:09.167Z,97556.00
2023-03-30T23:08:12.650Z,97555.81
2023-03-30T23:11:15.339Z,97557.34
2023-03-30T23:14:18.174Z,97572.72
2023-03-30T23:17:21.500Z,97578.19
2023-03-30T23:20:24.151Z,97580.03
2023-03-30T23:23:27.309Z,97573.88
2023-03-30T23:26:30.379Z,97563.41
2023-03-30T23:29:33.107Z,97565.22
2023-03-30T23:32:36.418Z,97566.78
2023-03-30T23:35:39.596Z,97572.88
2023-03-30T23:38:43.109Z,97565.34
2023-03-30T23:41:46.175Z,97557.59
2023-03-30T23:44:48.797Z,97554.56
2023-03-30T23:47:51.740Z,97549.22
2023-03-30T23:50:54.480Z,97555.56
2023-03-30T23:54:00.367Z,97563.44
2023-03-30T23:57:07.927Z,97565.34
